sensor_id;sensor_type;location;lat;lon;timestamp;pressure;altitude;pressure_sealevel;temperature;humidity
67738;BME280;54534;43.612;1.572;2023-04-04T00:02:13;99144.00;;;18.71;49.05
67738;BME280;54534;43.612;1.572;2023-04-04T00:04:39;99142.31;;;18.70;49.10
67738;BME280;54534;43.612;1.572;2023-04-04T00:07:04;99145.94;;;18.69;48.88
67738;BME280;54534;43.612;1.572;2023-04-04T00:09:29;99154.94;;;18.68;48.64
67738;BME280;54534;43.612;1.572;2023-04-04T00:11:55;99153.22;;;18.67;49.19
67738;BME280;54534;43.612;1.572;2023-04-04T00:14:20;99154.31;;;18.64;48.77
67738;BME280;54534;43.612;1.572;2023-04-04T00:16:46;99163.16;;;18.65;48.73
67738;BME280;54534;43.612;1.572;2023-04-04T00:19:11;99156.28;;;18.62;48.61
67738;BME280;54534;43.612;1.572;2023-04-04T00:21:45;99153.59;;;18.62;48.76
67738;BME280;54534;43.612;1.572;2023-04-04T00:24:10;99157.38;;;18.60;48.62
67738;BME280;54534;43.612;1.572;2023-04-04T00:26:37;99152.91;;;18.60;48.60
67738;BME280;54534;43.612;1.572;2023-04-04T00:29:02;99154.69;;;18.60;48.42
67738;BME280;54534;43.612;1.572;2023-04-04T00:31:28;99151.34;;;18.58;48.35
67738;BME280;54534;43.612;1.572;2023-04-04T00:33:53;99150.47;;;18.57;48.89
67738;BME280;54534;43.612;1.572;2023-04-04T00:36:18;99148.91;;;18.54;48.63
67738;BME280;54534;43.612;1.572;2023-04-04T00:38:44;99142.72;;;18.54;48.79
67738;BME280;54534;43.612;1.572;2023-04-04T00:41:10;99140.06;;;18.54;48.22
67738;BME280;54534;43.612;1.572;2023-04-04T00:43:35;99141.88;;;18.53;48.35
67738;BME280;54534;43.612;1.572;2023-04-04T00:46:02;99135.84;;;18.51;48.39
67738;BME280;54534;43.612;1.572;2023-04-04T00:48:28;99135.84;;;18.51;48.25
67738;BME280;54534;43.612;1.572;2023-04-04T00:50:53;99133.41;;;18.48;48.64
67738;BME280;54534;43.612;1.572;2023-04-04T00:53:19;99137.91;;;18.48;48.22
67738;BME280;54534;43.612;1.572;2023-04-04T00:55:45;99137.06;;;18.47;48.11
67738;BME280;54534;43.612;1.572;2023-04-04T00:58:10;99140.69;;;18.46;48.26
67738;BME280;54534;43.612;1.572;2023-04-04T01:00:36;99135.38;;;18.46;48.23
67738;BME280;54534;43.612;1.572;2023-04-04T01:03:03;99131.84;;;18.45;48.46
67738;BME280;54534;43.612;1.572;2023-04-04T01:05:30;99134.66;;;18.44;48.63
67738;BME280;54534;43.612;1.572;2023-04-04T01:07:56;99123.28;;;18.42;48.34
67738;BME280;54534;43.612;1.572;2023-04-04T01:10:22;99133.09;;;18.41;48.12
67738;BME280;54534;43.612;1.572;2023-04-04T01:12:47;99125.22;;;18.40;48.16
67738;BME280;54534;43.612;1.572;2023-04-04T01:15:13;99127.06;;;18.39;48.20
67738;BME280;54534;43.612;1.572;2023-04-04T01:17:39;99130.66;;;18.38;48.37
67738;BME280;54534;43.612;1.572;2023-04-04T01:20:06;99127.16;;;18.38;48.04
67738;BME280;54534;43.612;1.572;2023-04-04T01:22:34;99113.97;;;18.36;48.25
67738;BME280;54534;43.612;1.572;2023-04-04T01:25:03;99108.75;;;18.34;48.41
67738;BME280;54534;43.612;1.572;2023-04-04T01:27:30;99111.44;;;18.34;47.94
67738;BME280;54534;43.612;1.572;2023-04-04T01:29:55;99107.09;;;18.33;48.21
67738;BME280;54534;43.612;1.572;2023-04-04T01:32:41;99115.06;;;18.33;48.26
67738;BME280;54534;43.612;1.572;2023-04-04T01:35:23;99103.69;;;18.31;47.90
67738;BME280;54534;43.612;1.572;2023-04-04T01:38:23;99105.53;;;18.31;48.16
67738;BME280;54534;43.612;1.572;2023-04-04T01:41:03;99107.44;;;18.29;47.97
67738;BME280;54534;43.612;1.572;2023-04-04T01:43:30;99106.63;;;18.28;48.09
67738;BME280;54534;43.612;1.572;2023-04-04T01:45:58;99105.78;;;18.28;48.25
67738;BME280;54534;43.612;1.572;2023-04-04T01:48:23;99103.22;;;18.26;47.77
67738;BME280;54534;43.612;1.572;2023-04-04T01:50:49;99098.88;;;18.25;48.15
67738;BME280;54534;43.612;1.572;2023-04-04T01:53:14;99096.22;;;18.25;48.31
67738;BME280;54534;43.612;1.572;2023-04-04T01:55:40;99085.81;;;18.22;47.65
67738;BME280;54534;43.612;1.572;2023-04-04T01:58:05;99091.13;;;18.22;48.05
67738;BME280;54534;43.612;1.572;2023-04-04T02:00:30;99094.75;;;18.21;47.79
67738;BME280;54534;43.612;1.572;2023-04-04T02:02:56;99098.38;;;18.20;48.04
67738;BME280;54534;43.612;1.572;2023-04-04T02:05:21;99101.91;;;18.20;47.60
67738;BME280;54534;43.612;1.572;2023-04-04T02:07:47;99094.00;;;18.19;48.09
67738;BME280;54534;43.612;1.572;2023-04-04T02:10:16;99097.66;;;18.18;48.04
67738;BME280;54534;43.612;1.572;2023-04-04T02:12:42;99097.66;;;18.18;47.92
67738;BME280;54534;43.612;1.572;2023-04-04T02:15:08;99100.44;;;18.16;47.86
67738;BME280;54534;43.612;1.572;2023-04-04T02:17:33;99097.75;;;18.16;47.56
67738;BME280;54534;43.612;1.572;2023-04-04T02:19:59;99101.41;;;18.15;48.01
67738;BME280;54534;43.612;1.572;2023-04-04T02:22:25;99099.72;;;18.14;47.48
67738;BME280;54534;43.612;1.572;2023-04-04T02:24:51;99094.38;;;18.14;47.83
67738;BME280;54534;43.612;1.572;2023-04-04T02:27:18;99100.66;;;18.13;47.65
67738;BME280;54534;43.612;1.572;2023-04-04T02:29:43;99099.00;;;18.12;47.61
67738;BME280;54534;43.612;1.572;2023-04-04T02:32:09;99099.94;;;18.11;47.92
67738;BME280;54534;43.612;1.572;2023-04-04T02:34:34;99099.94;;;18.11;47.75
67738;BME280;54534;43.612;1.572;2023-04-04T02:37:00;99092.97;;;18.10;47.48
67738;BME280;54534;43.612;1.572;2023-04-04T02:39:26;99097.44;;;18.09;47.47
67738;BME280;54534;43.612;1.572;2023-04-04T02:41:52;99090.41;;;18.08;47.90
67738;BME280;54534;43.612;1.572;2023-04-04T02:44:17;99091.25;;;18.09;47.77
67738;BME280;54534;43.612;1.572;2023-04-04T02:46:42;99089.69;;;18.06;47.40
67738;BME280;54534;43.612;1.572;2023-04-04T02:49:08;99086.16;;;18.06;47.47
67738;BME280;54534;43.612;1.572;2023-04-04T02:51:33;99091.50;;;18.06;47.59
67738;BME280;54534;43.612;1.572;2023-04-04T02:53:59;99091.63;;;18.04;47.52
67738;BME280;54534;43.612;1.572;2023-04-04T02:56:25;99093.31;;;18.05;47.47
67738;BME280;54534;43.612;1.572;2023-04-04T02:58:50;99098.75;;;18.04;47.49
67738;BME280;54534;43.612;1.572;2023-04-04T03:01:16;99098.03;;;18.01;47.64
67738;BME280;54534;43.612;1.572;2023-04-04T03:03:42;99100.69;;;18.01;47.64
67738;BME280;54534;43.612;1.572;2023-04-04T03:06:07;99105.16;;;18.01;47.49
67738;BME280;54534;43.612;1.572;2023-04-04T03:08:33;99106.13;;;18.00;47.70
67738;BME280;54534;43.612;1.572;2023-04-04T03:11:00;99104.31;;;18.00;47.35
67738;BME280;54534;43.612;1.572;2023-04-04T03:13:25;99105.28;;;17.99;47.32
67738;BME280;54534;43.612;1.572;2023-04-04T03:15:58;99107.13;;;17.99;47.64
67738;BME280;54534;43.612;1.572;2023-04-04T03:18:24;99109.88;;;17.97;47.31
67738;BME280;54534;43.612;1.572;2023-04-04T03:20:49;99092.25;;;17.96;47.44
67738;BME280;54534;43.612;1.572;2023-04-04T03:23:14;99090.53;;;17.95;47.31
67738;BME280;54534;43.612;1.572;2023-04-04T03:25:40;99087.03;;;17.95;47.24
67738;BME280;54534;43.612;1.572;2023-04-04T03:28:10;99076.53;;;17.93;47.83
67738;BME280;54534;43.612;1.572;2023-04-04T03:30:35;99091.50;;;17.94;47.40
67738;BME280;54534;43.612;1.572;2023-04-04T03:33:04;99090.69;;;17.94;47.64
67738;BME280;54534;43.612;1.572;2023-04-04T03:35:39;99098.03;;;17.90;47.09
67738;BME280;54534;43.612;1.572;2023-04-04T03:38:06;99096.09;;;17.92;47.38
67738;BME280;54534;43.612;1.572;2023-04-04T03:40:32;99093.56;;;17.90;47.25
67738;BME280;54534;43.612;1.572;2023-04-04T03:42:57;99093.69;;;17.89;47.59
67738;BME280;54534;43.612;1.572;2023-04-04T03:45:23;99099.97;;;17.88;47.31
67738;BME280;54534;43.612;1.572;2023-04-04T03:47:48;99095.63;;;17.87;47.17
67738;BME280;54534;43.612;1.572;2023-04-04T03:50:14;99090.28;;;17.87;47.33
67738;BME280;54534;43.612;1.572;2023-04-04T03:52:40;99083.41;;;17.84;47.14
67738;BME280;54534;43.612;1.572;2023-04-04T03:55:05;99094.66;;;17.88;47.29
67738;BME280;54534;43.612;1.572;2023-04-04T03:57:32;99096.59;;;17.86;47.31
67738;BME280;54534;43.612;1.572;2023-04-04T03:59:57;99093.19;;;17.84;47.14
67738;BME280;54534;43.612;1.572;2023-04-04T04:02:23;99103.00;;;17.83;47.19
67738;BME280;54534;43.612;1.572;2023-04-04T04:04:48;99105.66;;;17.83;47.40
67738;BME280;54534;43.612;1.572;2023-04-04T04:07:15;99098.66;;;17.82;46.96
67738;BME280;54534;43.612;1.572;2023-04-04T04:09:40;99100.47;;;17.82;47.08
67738;BME280;54534;43.612;1.572;2023-04-04T04:12:06;99106.63;;;17.82;47.11
67738;BME280;54534;43.612;1.572;2023-04-04T04:14:32;99095.38;;;17.78;46.85
67738;BME280;54534;43.612;1.572;2023-04-04T04:16:57;99094.41;;;17.79;47.15
67738;BME280;54534;43.612;1.572;2023-04-04T04:19:23;99090.06;;;17.78;47.23
67738;BME280;54534;43.612;1.572;2023-04-04T04:21:48;99095.38;;;17.78;47.29
67738;BME280;54534;43.612;1.572;2023-04-04T04:24:13;99099.97;;;17.76;46.87
67738;BME280;54534;43.612;1.572;2023-04-04T04:26:39;99105.19;;;17.78;47.17
67738;BME280;54534;43.612;1.572;2023-04-04T04:29:05;99096.47;;;17.76;47.31
67738;BME280;54534;43.612;1.572;2023-04-04T04:31:31;99101.78;;;17.76;47.12
67738;BME280;54534;43.612;1.572;2023-04-04T04:33:56;99104.34;;;17.77;47.06
67738;BME280;54534;43.612;1.572;2023-04-04T04:36:22;99101.78;;;17.76;47.13
67738;BME280;54534;43.612;1.572;2023-04-04T04:38:47;99107.09;;;17.76;47.60
67738;BME280;54534;43.612;1.572;2023-04-04T04:41:13;99107.09;;;17.76;47.56
67738;BME280;54534;43.612;1.572;2023-04-04T04:43:38;99113.41;;;17.75;47.30
67738;BME280;54534;43.612;1.572;2023-04-04T04:46:05;99105.44;;;17.75;47.11
67738;BME280;54534;43.612;1.572;2023-04-04T04:48:33;99108.09;;;17.75;47.57
67738;BME280;54534;43.612;1.572;2023-04-04T04:50:58;99106.38;;;17.74;47.27
67738;BME280;54534;43.612;1.572;2023-04-04T04:53:24;99113.63;;;17.72;47.60
67738;BME280;54534;43.612;1.572;2023-04-04T04:55:49;99107.38;;;17.73;47.73
67738;BME280;54534;43.612;1.572;2023-04-04T04:58:16;99118.00;;;17.73;47.47
67738;BME280;54534;43.612;1.572;2023-04-04T05:00:45;99116.28;;;17.72;47.52
67738;BME280;54534;43.612;1.572;2023-04-04T05:03:11;99116.28;;;17.72;47.20
67738;BME280;54534;43.612;1.572;2023-04-04T05:05:36;99113.78;;;17.70;47.24
67738;BME280;54534;43.612;1.572;2023-04-04T05:08:02;99115.56;;;17.70;47.39
67738;BME280;54534;43.612;1.572;2023-04-04T05:13:50;99117.38;;;17.69;47.39
67738;BME280;54534;43.612;1.572;2023-04-04T05:16:15;99114.84;;;17.67;47.61
67738;BME280;54534;43.612;1.572;2023-04-04T05:18:42;99119.19;;;17.68;47.53
67738;BME280;54534;43.612;1.572;2023-04-04T05:21:07;99130.81;;;17.67;47.23
67738;BME280;54534;43.612;1.572;2023-04-04T05:23:33;99132.50;;;17.68;47.68
67738;BME280;54534;43.612;1.572;2023-04-04T05:25:58;99144.94;;;17.68;47.32
67738;BME280;54534;43.612;1.572;2023-04-04T05:28:24;99147.59;;;17.68;47.17
67738;BME280;54534;43.612;1.572;2023-04-04T05:30:49;99143.25;;;17.67;47.19
67738;BME280;54534;43.612;1.572;2023-04-04T05:33:15;99157.41;;;17.67;47.16
67738;BME280;54534;43.612;1.572;2023-04-04T05:35:40;99156.41;;;17.68;47.42
67738;BME280;54534;43.612;1.572;2023-04-04T05:38:06;99162.72;;;17.67;47.39
67738;BME280;54534;43.612;1.572;2023-04-04T05:40:32;99169.84;;;17.67;47.16
67738;BME280;54534;43.612;1.572;2023-04-04T05:42:58;99165.38;;;17.67;47.26
67738;BME280;54534;43.612;1.572;2023-04-04T05:45:24;99170.69;;;17.67;46.83
67738;BME280;54534;43.612;1.572;2023-04-04T05:47:51;99173.47;;;17.66;47.05
67738;BME280;54534;43.612;1.572;2023-04-04T05:50:17;99173.47;;;17.66;46.70
67738;BME280;54534;43.612;1.572;2023-04-04T05:52:43;99176.25;;;17.64;46.50
67738;BME280;54534;43.612;1.572;2023-04-04T05:55:08;99172.72;;;17.64;46.78
67738;BME280;54534;43.612;1.572;2023-04-04T05:57:34;99179.00;;;17.63;46.74
67738;BME280;54534;43.612;1.572;2023-04-04T05:59:59;99175.53;;;17.62;46.60
67738;BME280;54534;43.612;1.572;2023-04-04T06:02:25;99176.56;;;17.60;46.77
67738;BME280;54534;43.612;1.572;2023-04-04T06:04:50;99185.41;;;17.60;46.98
67738;BME280;54534;43.612;1.572;2023-04-04T06:07:16;99186.38;;;17.59;46.69
67738;BME280;54534;43.612;1.572;2023-04-04T06:09:42;99190.84;;;17.59;46.49
67738;BME280;54534;43.612;1.572;2023-04-04T06:12:08;99191.81;;;17.58;46.50
67738;BME280;54534;43.612;1.572;2023-04-04T06:14:36;99191.94;;;17.56;46.46
67738;BME280;54534;43.612;1.572;2023-04-04T06:17:03;99192.88;;;17.55;46.06
67738;BME280;54534;43.612;1.572;2023-04-04T06:19:29;99196.41;;;17.55;46.34
67738;BME280;54534;43.612;1.572;2023-04-04T06:21:54;99197.34;;;17.54;46.58
67738;BME280;54534;43.612;1.572;2023-04-04T06:24:20;99202.78;;;17.53;46.43
67738;BME280;54534;43.612;1.572;2023-04-04T06:26:46;99205.44;;;17.53;46.06
67738;BME280;54534;43.612;1.572;2023-04-04T06:29:15;99207.25;;;17.52;46.19
67738;BME280;54534;43.612;1.572;2023-04-04T06:31:41;99211.72;;;17.52;46.50
67738;BME280;54534;43.612;1.572;2023-04-04T06:34:07;99204.59;;;17.52;46.24
67738;BME280;54534;43.612;1.572;2023-04-04T06:36:32;99207.25;;;17.52;46.06
67738;BME280;54534;43.612;1.572;2023-04-04T06:38:57;99205.59;;;17.51;45.94
67738;BME280;54534;43.612;1.572;2023-04-04T06:41:23;99207.25;;;17.52;45.90
67738;BME280;54534;43.612;1.572;2023-04-04T06:43:48;99200.88;;;17.55;46.32
67738;BME280;54534;43.612;1.572;2023-04-04T06:46:13;99202.66;;;17.54;46.07
67738;BME280;54534;43.612;1.572;2023-04-04T06:48:39;99193.75;;;17.55;45.89
67738;BME280;54534;43.612;1.572;2023-04-04T06:51:05;99199.91;;;17.56;46.02
67738;BME280;54534;43.612;1.572;2023-04-04T06:53:31;99191.94;;;17.56;46.05
67738;BME280;54534;43.612;1.572;2023-04-04T06:55:57;99196.16;;;17.59;46.10
67738;BME280;54534;43.612;1.572;2023-04-04T06:58:23;99194.47;;;17.58;45.74
67738;BME280;54534;43.612;1.572;2023-04-04T07:00:49;99193.38;;;17.60;46.01
67738;BME280;54534;43.612;1.572;2023-04-04T07:03:14;99198.59;;;17.62;45.94
67738;BME280;54534;43.612;1.572;2023-04-04T07:05:40;99205.72;;;17.61;45.99
67738;BME280;54534;43.612;1.572;2023-04-04T07:08:06;99206.56;;;17.62;45.71
67738;BME280;54534;43.612;1.572;2023-04-04T07:10:31;99217.09;;;17.63;45.70
67738;BME280;54534;43.612;1.572;2023-04-04T07:12:57;99210.91;;;17.63;45.64
67738;BME280;54534;43.612;1.572;2023-04-04T07:15:22;99224.97;;;17.65;45.82
67738;BME280;54534;43.612;1.572;2023-04-04T07:17:48;99221.44;;;17.64;45.82
67738;BME280;54534;43.612;1.572;2023-04-04T07:20:13;99227.63;;;17.65;45.58
67738;BME280;54534;43.612;1.572;2023-04-04T07:22:39;99223.13;;;17.65;45.48
67738;BME280;54534;43.612;1.572;2023-04-04T07:25:06;99233.66;;;17.67;45.47
67738;BME280;54534;43.612;1.572;2023-04-04T07:27:31;99228.44;;;17.65;45.35
67738;BME280;54534;43.612;1.572;2023-04-04T07:29:57;99241.63;;;17.67;45.56
67738;BME280;54534;43.612;1.572;2023-04-04T07:32:22;99245.25;;;17.66;45.57
67738;BME280;54534;43.612;1.572;2023-04-04T07:34:48;99246.09;;;17.66;45.24
67738;BME280;54534;43.612;1.572;2023-04-04T07:37:14;99238.97;;;17.67;45.41
67738;BME280;54534;43.612;1.572;2023-04-04T07:39:40;99242.50;;;17.67;45.51
67738;BME280;54534;43.612;1.572;2023-04-04T07:42:06;99237.16;;;17.67;45.60
67738;BME280;54534;43.612;1.572;2023-04-04T07:44:32;99234.50;;;17.67;45.81
67738;BME280;54534;43.612;1.572;2023-04-04T07:46:57;99232.69;;;17.68;45.35
67738;BME280;54534;43.612;1.572;2023-04-04T07:49:22;99235.22;;;17.70;45.80
67738;BME280;54534;43.612;1.572;2023-04-04T07:51:48;99237.91;;;17.70;45.43
67738;BME280;54534;43.612;1.572;2023-04-04T07:54:14;99235.22;;;17.70;45.77
67738;BME280;54534;43.612;1.572;2023-04-04T07:56:39;99244.88;;;17.71;45.55
67738;BME280;54534;43.612;1.572;2023-04-04T07:59:05;99245.88;;;17.70;45.32
67738;BME280;54534;43.612;1.572;2023-04-04T08:01:31;99236.09;;;17.70;45.19
67738;BME280;54534;43.612;1.572;2023-04-04T08:03:56;99236.91;;;17.71;45.48
67738;BME280;54534;43.612;1.572;2023-04-04T08:06:22;99233.44;;;17.70;45.20
67738;BME280;54534;43.612;1.572;2023-04-04T08:08:47;99235.97;;;17.72;45.32
67738;BME280;54534;43.612;1.572;2023-04-04T08:11:12;99241.28;;;17.72;45.53
67738;BME280;54534;43.612;1.572;2023-04-04T08:13:38;99235.09;;;17.71;45.46
67738;BME280;54534;43.612;1.572;2023-04-04T08:16:04;99242.22;;;17.71;45.58
67738;BME280;54534;43.612;1.572;2023-04-04T08:18:30;99243.94;;;17.72;45.34
67738;BME280;54534;43.612;1.572;2023-04-04T08:20:55;99243.09;;;17.71;45.05
67738;BME280;54534;43.612;1.572;2023-04-04T08:23:21;99243.94;;;17.72;45.20
67738;BME280;54534;43.612;1.572;2023-04-04T08:25:46;99241.41;;;17.70;45.07
67738;BME280;54534;43.612;1.572;2023-04-04T08:28:12;99243.94;;;17.72;45.49
67738;BME280;54534;43.612;1.572;2023-04-04T08:30:38;99253.72;;;17.71;45.09
67738;BME280;54534;43.612;1.572;2023-04-04T08:33:03;99247.44;;;17.72;45.11
67738;BME280;54534;43.612;1.572;2023-04-04T08:35:29;99243.09;;;17.71;45.19
67738;BME280;54534;43.612;1.572;2023-04-04T08:37:54;99242.13;;;17.72;45.11
67738;BME280;54534;43.612;1.572;2023-04-04T08:40:21;99229.69;;;17.73;45.37
67738;BME280;54534;43.612;1.572;2023-04-04T08:42:49;99226.03;;;17.74;45.00
67738;BME280;54534;43.612;1.572;2023-04-04T08:45:17;99229.69;;;17.73;45.34
67738;BME280;54534;43.612;1.572;2023-04-04T08:47:45;99236.69;;;17.74;45.37
67738;BME280;54534;43.612;1.572;2023-04-04T08:50:11;99236.69;;;17.74;44.92
67738;BME280;54534;43.612;1.572;2023-04-04T08:52:36;99236.69;;;17.74;45.19
67738;BME280;54534;43.612;1.572;2023-04-04T08:55:05;99235.72;;;17.75;45.00
67738;BME280;54534;43.612;1.572;2023-04-04T08:57:31;99249.03;;;17.75;45.25
67738;BME280;54534;43.612;1.572;2023-04-04T08:59:57;99252.63;;;17.74;44.79
67738;BME280;54534;43.612;1.572;2023-04-04T09:05:15;99258.81;;;17.74;45.03
67738;BME280;54534;43.612;1.572;2023-04-04T09:07:42;99264.13;;;17.74;45.02
67738;BME280;54534;43.612;1.572;2023-04-04T09:10:08;99273.91;;;17.74;44.73
67738;BME280;54534;43.612;1.572;2023-04-04T09:12:38;99265.94;;;17.74;44.95
67738;BME280;54534;43.612;1.572;2023-04-04T09:15:06;99267.63;;;17.75;45.04
67738;BME280;54534;43.612;1.572;2023-04-04T09:17:31;99269.44;;;17.74;45.21
67738;BME280;54534;43.612;1.572;2023-04-04T09:20:00;99271.16;;;17.75;45.07
67738;BME280;54534;43.612;1.572;2023-04-04T09:22:28;99276.47;;;17.75;44.73
67738;BME280;54534;43.612;1.572;2023-04-04T09:24:55;99272.97;;;17.75;44.85
67738;BME280;54534;43.612;1.572;2023-04-04T09:27:20;99271.16;;;17.75;44.99
67738;BME280;54534;43.612;1.572;2023-04-04T09:29:46;99269.31;;;17.76;44.78
67738;BME280;54534;43.612;1.572;2023-04-04T09:32:15;99271.16;;;17.75;45.00
67738;BME280;54534;43.612;1.572;2023-04-04T09:34:42;99272.84;;;17.76;45.03
67738;BME280;54534;43.612;1.572;2023-04-04T09:37:13;99276.34;;;17.77;44.98
67738;BME280;54534;43.612;1.572;2023-04-04T09:39:41;99271.03;;;17.77;44.94
67738;BME280;54534;43.612;1.572;2023-04-04T09:42:07;99283.38;;;17.78;44.60
67738;BME280;54534;43.612;1.572;2023-04-04T09:44:34;99276.22;;;17.78;44.82
67738;BME280;54534;43.612;1.572;2023-04-04T09:47:25;99287.84;;;17.77;44.85
67738;BME280;54534;43.612;1.572;2023-04-04T09:49:52;99293.16;;;17.77;45.10
67738;BME280;54534;43.612;1.572;2023-04-04T09:52:19;99285.19;;;17.77;45.01
67738;BME280;54534;43.612;1.572;2023-04-04T09:55:00;99300.16;;;17.78;44.72
67738;BME280;54534;43.612;1.572;2023-04-04T09:57:30;99296.66;;;17.78;44.85
67738;BME280;54534;43.612;1.572;2023-04-04T10:00:00;99301.13;;;17.77;44.56
67738;BME280;54534;43.612;1.572;2023-04-04T10:02:29;99295.81;;;17.77;44.63
67738;BME280;54534;43.612;1.572;2023-04-04T10:04:55;99297.75;;;17.75;44.70
67738;BME280;54534;43.612;1.572;2023-04-04T10:07:23;99302.81;;;17.78;44.74
67738;BME280;54534;43.612;1.572;2023-04-04T10:09:49;99298.56;;;17.76;44.54
67738;BME280;54534;43.612;1.572;2023-04-04T10:12:20;99293.03;;;17.79;44.97
67738;BME280;54534;43.612;1.572;2023-04-04T10:14:46;99301.00;;;17.79;44.61
67738;BME280;54534;43.612;1.572;2023-04-04T10:17:11;99302.72;;;17.80;44.58
67738;BME280;54534;43.612;1.572;2023-04-04T10:19:40;99305.38;;;17.80;44.59
67738;BME280;54534;43.612;1.572;2023-04-04T10:22:06;99303.66;;;17.79;44.57
67738;BME280;54534;43.612;1.572;2023-04-04T10:24:32;99311.53;;;17.81;44.56
67738;BME280;54534;43.612;1.572;2023-04-04T10:26:57;99313.34;;;17.80;44.66
67738;BME280;54534;43.612;1.572;2023-04-04T10:29:23;99310.69;;;17.80;44.62
67738;BME280;54534;43.612;1.572;2023-04-04T10:31:56;99317.69;;;17.81;44.42
67738;BME280;54534;43.612;1.572;2023-04-04T10:34:28;99323.88;;;17.82;44.55
67738;BME280;54534;43.612;1.572;2023-04-04T10:37:06;99316.00;;;17.80;44.47
67738;BME280;54534;43.612;1.572;2023-04-04T10:39:36;99323.00;;;17.81;44.60
67738;BME280;54534;43.612;1.572;2023-04-04T10:42:05;99326.66;;;17.80;44.80
67738;BME280;54534;43.612;1.572;2023-04-04T10:44:33;99315.03;;;17.81;44.51
67738;BME280;54534;43.612;1.572;2023-04-04T10:47:13;99323.00;;;17.81;44.39
67738;BME280;54534;43.612;1.572;2023-04-04T10:49:40;99317.94;;;17.78;44.67
67738;BME280;54534;43.612;1.572;2023-04-04T10:52:06;99317.69;;;17.81;44.62
67738;BME280;54534;43.612;1.572;2023-04-04T10:54:33;99323.00;;;17.81;44.91
67738;BME280;54534;43.612;1.572;2023-04-04T10:56:59;99331.97;;;17.80;44.58
67738;BME280;54534;43.612;1.572;2023-04-04T10:59:28;99328.31;;;17.81;44.71
67738;BME280;54534;43.612;1.572;2023-04-04T11:01:58;99329.19;;;17.82;44.49
67738;BME280;54534;43.612;1.572;2023-04-04T11:04:32;99333.66;;;17.81;44.39
67738;BME280;54534;43.612;1.572;2023-04-04T11:12:12;99318.53;;;17.82;44.72
67738;BME280;54534;43.612;1.572;2023-04-04T11:15:05;99326.66;;;17.80;44.25
67738;BME280;54534;43.612;1.572;2023-04-04T11:20:21;99322.91;;;17.83;44.64
67738;BME280;54534;43.612;1.572;2023-04-04T11:23:00;99316.75;;;17.82;44.59
67738;BME280;54534;43.612;1.572;2023-04-04T11:25:30;99326.41;;;17.83;44.48
67738;BME280;54534;43.612;1.572;2023-04-04T11:27:57;99324.00;;;17.80;44.82
67738;BME280;54534;43.612;1.572;2023-04-04T11:30:24;99314.06;;;17.82;44.25
67738;BME280;54534;43.612;1.572;2023-04-04T11:32:50;99331.84;;;17.82;44.25
67738;BME280;54534;43.612;1.572;2023-04-04T11:35:16;99322.06;;;17.82;44.50
67738;BME280;54534;43.612;1.572;2023-04-04T11:37:43;99316.75;;;17.82;44.29
67738;BME280;54534;43.612;1.572;2023-04-04T11:40:09;99317.59;;;17.83;44.52
67738;BME280;54534;43.612;1.572;2023-04-04T11:42:37;99319.41;;;17.82;44.14
67738;BME280;54534;43.612;1.572;2023-04-04T11:45:05;99315.88;;;17.82;44.36
67738;BME280;54534;43.612;1.572;2023-04-04T11:47:31;99313.22;;;17.82;44.39
67738;BME280;54534;43.612;1.572;2023-04-04T11:49:59;99324.59;;;17.84;44.45
67738;BME280;54534;43.612;1.572;2023-04-04T11:52:31;99313.94;;;17.84;44.14
67738;BME280;54534;43.612;1.572;2023-04-04T11:54:57;99312.13;;;17.84;44.53
67738;BME280;54534;43.612;1.572;2023-04-04T11:57:23;99301.50;;;17.84;44.15
67738;BME280;54534;43.612;1.572;2023-04-04T11:59:49;99313.94;;;17.84;44.19
67738;BME280;54534;43.612;1.572;2023-04-04T12:02:19;99314.81;;;17.84;44.40
67738;BME280;54534;43.612;1.572;2023-04-04T12:04:45;99321.94;;;17.84;44.52
67738;BME280;54534;43.612;1.572;2023-04-04T12:07:11;99321.94;;;17.84;44.42
67738;BME280;54534;43.612;1.572;2023-04-04T12:09:40;99321.81;;;17.85;44.51
67738;BME280;54534;43.612;1.572;2023-04-04T12:12:07;99308.53;;;17.85;44.01
67738;BME280;54534;43.612;1.572;2023-04-04T12:14:36;99312.13;;;17.84;44.61
67738;BME280;54534;43.612;1.572;2023-04-04T12:17:04;99306.81;;;17.84;44.33
67738;BME280;54534;43.612;1.572;2023-04-04T12:19:30;99306.81;;;17.84;44.61
67738;BME280;54534;43.612;1.572;2023-04-04T12:21:56;99301.41;;;17.86;44.13
67738;BME280;54534;43.612;1.572;2023-04-04T12:24:22;99304.16;;;17.84;44.16
67738;BME280;54534;43.612;1.572;2023-04-04T12:26:50;99312.88;;;17.86;44.35
67738;BME280;54534;43.612;1.572;2023-04-04T12:29:18;99305.88;;;17.85;44.28
67738;BME280;54534;43.612;1.572;2023-04-04T12:31:45;99304.16;;;17.84;44.21
67738;BME280;54534;43.612;1.572;2023-04-04T12:34:17;99297.03;;;17.85;44.11
67738;BME280;54534;43.612;1.572;2023-04-04T12:36:46;99305.03;;;17.85;44.20
67738;BME280;54534;43.612;1.572;2023-04-04T12:39:14;99304.88;;;17.86;44.17
67738;BME280;54534;43.612;1.572;2023-04-04T12:41:47;99303.22;;;17.85;44.67
67738;BME280;54534;43.612;1.572;2023-04-04T12:44:34;99297.75;;;17.87;44.44
67738;BME280;54534;43.612;1.572;2023-04-04T12:47:01;99300.41;;;17.87;44.18
67738;BME280;54534;43.612;1.572;2023-04-04T12:49:34;99302.22;;;17.86;44.41
67738;BME280;54534;43.612;1.572;2023-04-04T12:52:04;99303.94;;;17.87;44.55
67738;BME280;54534;43.612;1.572;2023-04-04T12:54:33;99287.13;;;17.87;44.42
67738;BME280;54534;43.612;1.572;2023-04-04T12:57:01;99286.25;;;17.86;44.57
67738;BME280;54534;43.612;1.572;2023-04-04T12:59:29;99285.31;;;17.87;44.55
67738;BME280;54534;43.612;1.572;2023-04-04T13:01:55;99288.94;;;17.86;44.20
67738;BME280;54534;43.612;1.572;2023-04-04T13:04:21;99279.16;;;17.87;44.13
67738;BME280;54534;43.612;1.572;2023-04-04T13:06:47;99269.34;;;17.87;44.62
67738;BME280;54534;43.612;1.572;2023-04-04T13:09:17;99270.22;;;17.88;44.45
67738;BME280;54534;43.612;1.572;2023-04-04T13:11:58;99272.00;;;17.87;44.53
67738;BME280;54534;43.612;1.572;2023-04-04T13:14:24;99277.56;;;17.84;44.20